Time;durP1;ratioP1;P1;durP2;ratioP2;P2;SDS_P1;SDS_P2;PMS_P1;PMS_P2;Temp;Humidity;BMP_temperature;BMP_pressure;BME280_temperature;BME280_humidity;BME280_pressure;Samples;Min_cycle;Max_cycle;Signal;HPM_P1;HPM_P2
2022/05/25 00:01:00;;;;;;;5.17;3.27;;;;;;;14.55;71.38;100172.24;1764510;81;20978;-69
2022/05/25 00:03:27;;;;;;;5.50;3.30;;;;;;;14.57;71.42;100172.86;1764463;80;20962;-69
2022/05/25 00:05:53;;;;;;;6.42;3.45;;;;;;;14.61;71.48;100175.45;1782952;78;21033;-69
2022/05/25 00:08:19;;;;;;;7.33;2.85;;;;;;;14.66;71.51;100177.03;1796246;79;20899;-69
2022/05/25 00:10:45;;;;;;;10.55;3.15;;;;;;;14.69;71.54;100180.66;1764570;81;21028;-69
2022/05/25 00:13:11;;;;;;;4.47;2.92;;;;;;;14.70;71.55;100189.03;1758888;81;21044;-69
2022/05/25 00:15:37;;;;;;;7.15;3.60;;;;;;;14.75;71.57;100185.20;1774342;80;21088;-69
2022/05/25 00:18:03;;;;;;;3.95;3.27;;;;;;;14.79;71.55;100190.48;1796032;79;20925;-68
2022/05/25 00:20:29;;;;;;;8.85;4.85;;;;;;;14.78;71.55;100174.89;1766068;79;21026;-69
2022/05/25 00:22:56;;;;;;;9.83;5.22;;;;;;;14.80;71.56;100193.50;1796385;79;21098;-69
2022/05/25 00:25:32;;;;;;;7.22;4.92;;;;;;;14.81;71.53;100188.45;1764781;81;20987;-68
2022/05/25 00:27:58;;;;;;;8.65;4.50;;;;;;;14.78;71.54;100192.85;1796300;78;21475;-69
2022/05/25 00:30:25;;;;;;;6.92;4.67;;;;;;;14.73;71.59;100185.94;1764226;81;21554;-68
2022/05/25 00:32:51;;;;;;;9.30;4.12;;;;;;;14.65;71.63;100189.63;1795983;79;21502;-68
2022/05/25 00:35:20;;;;;;;5.03;3.92;;;;;;;14.60;71.70;100188.05;1790434;79;21108;-69
2022/05/25 00:37:46;;;;;;;4.87;3.30;;;;;;;14.57;71.75;100180.91;1796061;79;21069;-69
2022/05/25 00:40:16;;;;;;;4.33;3.30;;;;;;;14.55;71.79;100178.95;1764592;81;20978;-69
2022/05/25 00:42:42;;;;;;;7.70;3.30;;;;;;;14.55;71.86;100193.71;1794443;79;21005;-69
2022/05/25 00:45:09;;;;;;;6.97;3.90;;;;;;;14.55;71.88;100188.34;1764799;81;21454;-69
2022/05/25 00:47:35;;;;;;;6.67;3.87;;;;;;;14.52;71.96;100190.09;1796189;78;21486;-69
2022/05/25 00:50:03;;;;;;;4.65;3.08;;;;;;;14.53;72.05;100195.78;1743855;79;21604;-69
2022/05/25 00:52:29;;;;;;;3.75;2.83;;;;;;;14.54;72.10;100197.42;1796229;79;21038;-69
2022/05/25 00:55:01;;;;;;;7.53;4.85;;;;;;;14.55;72.12;100195.05;1796064;80;21459;-68
2022/05/25 00:57:35;;;;;;;4.58;3.05;;;;;;;14.50;72.12;100197.82;1770183;80;20994;-69
2022/05/25 01:00:18;;;;;;;9.55;3.77;;;;;;;14.49;72.22;100193.47;1796144;79;21797;-69
2022/05/25 01:02:54;;;;;;;6.25;4.00;;;;;;;14.45;72.28;100196.27;1796332;78;21037;-69
2022/05/25 01:05:28;;;;;;;6.72;3.95;;;;;;;14.44;72.39;100202.66;1795132;79;21501;-68
2022/05/25 01:08:14;;;;;;;6.58;3.87;;;;;;;14.46;72.48;100205.95;1796055;79;21476;-69
2022/05/25 01:11:23;;;;;;;6.42;4.33;;;;;;;14.46;72.55;100203.27;1796113;80;21479;-69
2022/05/25 01:14:01;;;;;;;9.00;4.87;;;;;;;14.45;72.68;100201.63;1796445;79;20979;-69
2022/05/25 01:17:17;;;;;;;6.83;5.12;;;;;;;14.47;72.78;100204.10;1800083;78;20989;-69
2022/05/25 01:19:52;;;;;;;7.42;4.30;;;;;;;14.51;72.83;100220.13;1781975;80;21026;-69
2022/05/25 01:23:14;;;;;;;5.05;3.77;;;;;;;14.54;72.89;100216.20;1768600;79;20986;-69
2022/05/25 01:26:17;;;;;;;5.10;3.70;;;;;;;14.50;72.93;100221.97;1751572;81;21399;-69
2022/05/25 01:29:07;;;;;;;6.58;3.50;;;;;;;14.52;73.03;100216.93;1734531;82;21562;-69
2022/05/25 01:31:50;;;;;;;5.47;4.15;;;;;;;14.53;73.10;100229.33;1745554;81;21540;-69
2022/05/25 01:34:30;;;;;;;5.35;3.47;;;;;;;14.47;73.12;100230.94;1773679;80;21011;-69
2022/05/25 01:37:02;;;;;;;4.12;3.02;;;;;;;14.48;73.14;100228.06;1773559;81;20975;-69
2022/05/25 01:39:31;;;;;;;5.40;3.62;;;;;;;14.49;73.14;100231.04;1750529;81;21019;-69
2022/05/25 01:42:20;;;;;;;7.33;4.00;;;;;;;14.50;73.16;100230.02;1743050;81;21508;-69
2022/05/25 01:44:51;;;;;;;;;;;;;;;14.46;73.18;100227.42;1745252;82;21475;-69
2022/05/25 01:47:16;;;;;;;;;;;;;;;14.43;73.27;100225.14;1745676;81;20174;-69
2022/05/25 01:49:58;;;;;;;3.92;3.30;;;;;;;14.42;73.30;100228.03;1741606;81;20174;-68
2022/05/25 01:52:28;;;;;;;3.62;2.87;;;;;;;14.39;73.32;100222.53;1742439;81;21590;-69
2022/05/25 01:55:00;;;;;;;6.17;3.02;;;;;;;14.35;73.35;100223.15;1742136;82;21151;-69
2022/05/25 01:57:28;;;;;;;3.08;2.47;;;;;;;14.27;73.41;100220.59;1741745;82;21878;-69
2022/05/25 01:59:54;;;;;;;3.25;2.62;;;;;;;14.23;73.50;100221.50;1742346;82;21050;-69
2022/05/25 02:05:09;;;;;;;6.62;2.72;;;;;;;14.26;73.64;100218.92;1742110;82;21066;-68
2022/05/25 02:07:55;;;;;;;3.70;2.83;;;;;;;14.24;73.72;100227.19;1756700;81;21635;-68
2022/05/25 02:10:49;;;;;;;3.87;3.22;;;;;;;14.17;73.83;100221.47;1772724;81;21480;-68
2022/05/25 02:13:39;;;;;;;6.50;4.08;;;;;;;14.14;73.90;100226.72;1771774;81;21042;-69
2022/05/25 02:16:24;;;;;;;;;;;;;;;14.12;74.00;100232.77;1775339;81;21534;-68
2022/05/25 02:19:17;;;;;;;9.00;4.42;;;;;;;13.98;74.07;100228.34;1772718;81;20145;-68
2022/05/25 02:22:05;;;;;;;8.25;4.70;;;;;;;13.91;74.20;100228.81;1757447;79;21149;-68
2022/05/25 02:24:41;;;;;;;8.23;4.97;;;;;;;13.70;74.30;100227.52;1741960;82;21503;-68
2022/05/25 02:27:24;;;;;;;17.42;6.37;;;;;;;13.61;74.55;100235.39;1742121;81;21066;-68
2022/05/25 02:29:53;;;;;;;20.97;10.30;;;;;;;13.61;74.55;100235.39;1742024;82;21018;-68
2022/05/25 02:32:45;;;;;;;26.77;8.60;;;;;;;13.42;74.49;100204.22;1741610;82;21515;-68
2022/05/25 02:35:11;;;;;;;13.95;7.28;;;;;;;13.50;74.59;100232.72;1742276;81;21793;-67
2022/05/25 02:37:37;;;;;;;11.73;5.22;;;;;;;13.34;74.70;100215.05;1741507;82;20986;-68
2022/05/25 02:40:05;;;;;;;6.33;4.30;;;;;;;13.49;74.74;100245.80;1742073;82;20979;-68
2022/05/25 02:42:31;;;;;;;6.53;3.83;;;;;;;13.49;75.11;100241.27;1714981;82;20967;-68
2022/05/25 02:44:57;;;;;;;4.42;2.95;;;;;;;13.49;75.11;100241.27;1742210;82;20919;-68
2022/05/25 02:47:23;;;;;;;6.97;3.52;;;;;;;13.44;74.92;100245.02;1742483;81;21473;-68
2022/05/25 02:49:49;;;;;;;6.53;4.15;;;;;;;13.26;75.01;100232.62;1766921;81;21123;-68
2022/05/25 02:52:15;;;;;;;6.78;3.90;;;;;;;13.32;75.08;100245.23;1771231;81;20994;-68
2022/05/25 02:54:41;;;;;;;5.62;3.45;;;;;;;13.25;75.15;100240.32;1771164;81;21074;-68
2022/05/25 02:57:07;;;;;;;4.58;3.10;;;;;;;13.12;75.29;100228.15;1771395;79;21051;-68
2022/05/25 02:59:33;;;;;;;5.67;3.87;;;;;;;13.17;75.36;100244.45;1771048;81;21194;-68
2022/05/25 03:02:01;;;;;;;3.55;3.10;;;;;;;13.17;75.36;100244.45;1793244;78;21021;-68
2022/05/25 03:04:27;;;;;;;5.87;3.65;;;;;;;13.14;75.44;100250.70;1765121;81;21479;-68
2022/05/25 03:06:53;;;;;;;14.20;4.95;;;;;;;13.08;75.49;100253.61;1792983;79;21049;-68
2022/05/25 03:09:19;;;;;;;14.18;6.62;;;;;;;13.09;75.57;100267.33;1793215;80;21533;-68
2022/05/25 03:11:45;;;;;;;10.60;5.12;;;;;;;13.11;75.65;100269.83;1792783;80;21172;-68
2022/05/25 03:14:11;;;;;;;7.90;5.17;;;;;;;13.09;75.55;100267.33;1792990;80;21013;-68
2022/05/25 03:16:37;;;;;;;10.15;5.67;;;;;;;13.09;75.55;100267.33;1796927;78;21007;-68
2022/05/25 03:19:03;;;;;;;7.22;4.05;;;;;;;13.14;75.85;100272.12;1824371;78;21411;-68
2022/05/25 03:21:29;;;;;;;5.15;3.80;;;;;;;13.12;75.90;100272.33;1825542;78;21487;-68
2022/05/25 03:23:55;;;;;;;6.42;4.33;;;;;;;13.10;75.98;100277.02;1825620;78;21790;-68
2022/05/25 03:26:21;;;;;;;5.08;3.67;;;;;;;13.12;76.02;100279.02;1825604;78;20943;-68
2022/05/25 03:28:47;;;;;;;6.60;4.42;;;;;;;13.08;76.07;100278.20;1825338;78;20895;-68
2022/05/25 03:31:15;;;;;;;7.83;5.08;;;;;;;13.07;76.17;100288.08;1820785;78;21050;-68
2022/05/25 03:33:41;;;;;;;7.92;4.97;;;;;;;13.13;76.27;100287.35;1761683;81;20969;-68
2022/05/25 03:36:07;;;;;;;9.43;4.58;;;;;;;13.24;76.30;100296.23;1792937;80;21006;-68
2022/05/25 03:38:33;;;;;;;7.92;3.85;;;;;;;13.31;76.48;100291.77;1761310;81;20966;-68
2022/05/25 03:40:59;;;;;;;11.15;3.87;;;;;;;13.31;76.48;100291.77;1792506;78;21636;-68
2022/05/25 03:43:30;;;;;;;8.78;3.72;;;;;;;13.22;76.48;100267.48;1764428;80;21029;-68
2022/05/25 03:45:56;;;;;;;5.47;4.08;;;;;;;13.22;76.48;100267.48;1793519;78;20970;-68
2022/05/25 03:48:22;;;;;;;6.20;3.75;;;;;;;13.27;76.44;100281.63;1761734;80;21660;-68
2022/05/25 03:50:49;;;;;;;6.03;3.67;;;;;;;13.22;76.48;100274.18;1765075;81;21519;-68
2022/05/25 03:53:15;;;;;;;6.83;3.27;;;;;;;13.24;76.48;100274.81;1793016;80;20986;-68
2022/05/25 03:55:42;;;;;;;5.45;3.35;;;;;;;13.24;76.48;100274.81;1792893;80;21026;-68
2022/05/25 03:58:09;;;;;;;6.42;4.12;;;;;;;13.36;76.62;100284.02;1761442;81;21108;-68
2022/05/25 04:00:35;;;;;;;8.58;4.22;;;;;;;13.31;76.67;100281.06;1786216;80;21159;-68
2022/05/25 04:03:02;;;;;;;6.15;4.47;;;;;;;13.39;76.73;100288.98;1792829;80;20950;-68
2022/05/25 04:05:30;;;;;;;7.62;5.55;;;;;;;13.49;76.99;100288.16;1825680;78;20971;-68
2022/05/25 04:07:58;;;;;;;6.40;4.33;;;;;;;13.50;77.03;100290.33;1792950;80;20959;-68
2022/05/25 04:10:24;;;;;;;5.95;4.83;;;;;;;13.50;77.03;100290.33;1793014;80;21021;-68
2022/05/25 04:12:50;;;;;;;8.65;4.45;;;;;;;13.56;76.87;100296.76;1825499;78;21116;-68
2022/05/25 04:15:20;;;;;;;6.37;3.50;;;;;;;13.61;76.89;100304.56;1808903;78;21029;-68
2022/05/25 04:17:46;;;;;;;8.30;5.15;;;;;;;13.53;76.84;100281.91;1793330;80;20999;-68
2022/05/25 04:20:12;;;;;;;6.85;3.70;;;;;;;13.67;76.90;100305.63;1761776;81;20965;-68
2022/05/25 04:22:38;;;;;;;7.55;3.50;;;;;;;13.70;76.93;100305.23;1793153;78;21503;-68
2022/05/25 04:25:07;;;;;;;5.37;3.20;;;;;;;13.68;76.96;100308.63;1792799;80;21054;-68
2022/05/25 04:27:34;;;;;;;4.05;3.08;;;;;;;13.70;77.00;100310.09;1793342;80;20998;-68
2022/05/25 04:30:00;;;;;;;9.38;4.28;;;;;;;13.69;77.05;100311.61;1778864;80;21431;-68
2022/05/25 04:32:26;;;;;;;5.95;4.95;;;;;;;13.74;77.24;100317.23;1791277;80;20990;-68
2022/05/25 04:34:53;;;;;;;7.75;4.33;;;;;;;13.78;76.87;100319.86;1825575;78;21022;-68
2022/05/25 04:40:06;;;;;;;7.08;4.80;;;;;;;13.84;77.15;100304.34;1792833;80;21005;-68
2022/05/25 04:42:32;;;;;;;7.12;4.83;;;;;;;13.88;77.12;100300.25;1825201;77;21405;-68
2022/05/25 04:45:03;;;;;;;7.33;4.42;;;;;;;13.96;77.13;100298.78;1772410;79;21495;-68
2022/05/25 04:47:28;;;;;;;5.45;4.08;;;;;;;14.06;77.13;100300.61;1792299;80;21447;-68
2022/05/25 04:49:54;;;;;;;6.15;3.90;;;;;;;14.12;77.15;100297.14;1777989;79;21163;-68
2022/05/25 04:52:20;;;;;;;9.95;5.12;;;;;;;14.07;77.10;100282.16;1774741;79;21030;-68
2022/05/25 04:54:46;;;;;;;13.32;6.80;;;;;;;14.20;77.06;100303.70;1783084;80;20995;-68
2022/05/25 04:57:23;;;;;;;5.62;4.10;;;;;;;14.21;77.07;100301.34;1783459;80;20940;-69
2022/05/25 04:59:53;;;;;;;3.02;2.72;;;;;;;14.17;77.08;100297.39;1783786;79;21042;-68
2022/05/25 05:02:19;;;;;;;4.35;2.98;;;;;;;14.20;77.09;100294.83;1783372;80;21142;-68
2022/05/25 05:04:45;;;;;;;8.33;5.25;;;;;;;14.24;77.10;100296.09;1758766;80;21031;-68
2022/05/25 05:07:12;;;;;;;20.55;17.62;;;;;;;14.29;77.11;100295.81;1783299;79;21496;-68
2022/05/25 05:09:40;;;;;;;15.55;12.90;;;;;;;14.33;77.04;100304.30;1783611;80;21048;-68
2022/05/25 05:12:07;;;;;;;9.25;6.85;;;;;;;14.39;77.08;100314.30;1783483;79;21023;-68
2022/05/25 05:14:33;;;;;;;7.33;4.62;;;;;;;14.48;77.08;100321.98;1783402;80;22161;-68
2022/05/25 05:17:01;;;;;;;3.70;2.90;;;;;;;14.58;77.05;100323.47;1783132;80;20979;-68
2022/05/25 05:19:27;;;;;;;3.90;2.92;;;;;;;14.65;76.96;100322.48;1783209;80;21070;-68
2022/05/25 05:21:59;;;;;;;5.15;3.67;;;;;;;14.70;76.87;100325.93;1783243;80;21613;-68
2022/05/25 05:24:26;;;;;;;6.45;3.22;;;;;;;14.77;76.83;100322.77;1784341;79;21003;-68
2022/05/25 05:26:53;;;;;;;6.95;3.77;;;;;;;14.83;76.76;100317.94;1783232;80;21202;-68
2022/05/25 05:29:19;;;;;;;7.62;3.70;;;;;;;14.90;76.70;100320.14;1783052;80;21579;-68
2022/05/25 05:31:46;;;;;;;28.32;16.97;;;;;;;14.88;76.64;100326.23;1783442;80;21558;-68
2022/05/25 05:34:12;;;;;;;18.45;10.10;;;;;;;14.88;76.66;100325.69;1782996;80;20999;-68
2022/05/25 05:37:04;;;;;;;11.15;6.12;;;;;;;14.81;76.62;100328.06;1796269;79;20908;-68
2022/05/25 05:39:34;;;;;;;7.80;3.62;;;;;;;14.80;76.64;100337.13;1815491;79;21088;-68
2022/05/25 05:42:04;;;;;;;4.92;2.87;;;;;;;14.74;76.63;100336.05;1815360;79;20975;-68
2022/05/25 05:44:37;;;;;;;3.70;2.90;;;;;;;14.74;76.64;100336.59;1813583;78;20940;-68
2022/05/25 05:47:05;;;;;;;4.40;2.90;;;;;;;14.79;76.64;100334.12;1815127;79;21575;-68
2022/05/25 05:49:31;;;;;;;4.10;2.80;;;;;;;14.80;76.58;100341.99;1814701;79;21027;-68
2022/05/25 05:51:57;;;;;;;2.92;2.72;;;;;;;14.92;76.58;100343.58;1824803;78;20944;-69
2022/05/25 05:54:23;;;;;;;4.40;2.95;;;;;;;15.04;76.51;100353.25;1816498;78;20986;-68
2022/05/25 05:56:49;;;;;;;7.85;3.20;;;;;;;15.11;76.51;100353.59;1788594;79;20978;-68
2022/05/25 05:59:15;;;;;;;9.85;4.78;;;;;;;15.23;76.47;100349.83;1796124;79;20949;-68
2022/05/25 06:01:42;;;;;;;5.08;4.37;;;;;;;15.33;76.43;100353.80;1773893;79;21010;-67
2022/05/25 06:04:09;;;;;;;6.40;4.00;;;;;;;15.35;76.35;100353.06;1811944;78;21841;-67
2022/05/25 06:06:35;;;;;;;5.10;2.83;;;;;;;15.45;76.29;100356.19;1805395;78;21038;-67
2022/05/25 06:09:01;;;;;;;4.28;3.17;;;;;;;15.55;76.15;100356.37;1791548;78;20979;-68
2022/05/25 06:11:27;;;;;;;5.12;3.30;;;;;;;15.63;76.11;100354.30;1813255;78;21014;-68
2022/05/25 06:13:53;;;;;;;6.67;3.20;;;;;;;15.68;76.01;100355.05;1796034;79;20946;-68
2022/05/25 06:21:48;;;;;;;12.58;4.12;;;;;;;15.85;75.72;100352.28;1827838;78;20999;-68
2022/05/25 06:24:14;;;;;;;4.53;3.95;;;;;;;15.85;75.59;100340.17;1780950;79;20966;-69
2022/05/25 06:26:40;;;;;;;6.67;4.12;;;;;;;15.91;75.60;100342.87;1820147;78;21503;-68
2022/05/25 06:29:06;;;;;;;4.20;3.60;;;;;;;16.06;75.54;100346.70;1810021;78;22133;-68
2022/05/25 06:31:32;;;;;;;6.10;4.12;;;;;;;16.13;75.40;100344.02;1810293;78;21010;-68
2022/05/25 06:33:59;;;;;;;8.08;4.50;;;;;;;16.12;75.22;100349.08;1812162;78;21496;-69
2022/05/25 06:36:27;;;;;;;12.43;6.95;;;;;;;16.10;75.11;100360.58;1816691;78;20915;-68
2022/05/25 06:38:54;;;;;;;6.73;3.17;;;;;;;16.17;75.07;100354.16;1809486;78;21535;-68
2022/05/25 06:41:20;;;;;;;7.40;2.70;;;;;;;16.21;74.96;100358.10;1818542;78;21086;-68
2022/05/25 06:43:46;;;;;;;2.75;2.08;;;;;;;16.28;74.86;100357.58;1816639;78;22436;-68
2022/05/25 06:46:13;;;;;;;3.42;2.60;;;;;;;16.39;74.75;100355.61;1815549;78;21438;-68
2022/05/25 06:48:39;;;;;;;3.08;2.55;;;;;;;16.49;74.59;100361.39;1776881;79;20982;-68
2022/05/25 06:51:16;;;;;;;3.45;2.00;;;;;;;16.62;74.44;100359.73;1775127;78;21456;-68
2022/05/25 06:53:42;;;;;;;3.17;2.40;;;;;;;16.80;74.30;100365.29;1797960;77;21110;-68
2022/05/25 06:56:08;;;;;;;5.33;2.30;;;;;;;17.07;74.10;100366.86;1804364;77;21000;-68
2022/05/25 06:58:34;;;;;;;2.85;1.92;;;;;;;17.28;73.88;100366.56;1801598;77;21045;-68
2022/05/25 07:01:01;;;;;;;5.28;2.10;;;;;;;17.52;73.62;100364.19;1806921;77;21014;-68
2022/05/25 07:03:27;;;;;;;4.90;1.80;;;;;;;17.69;73.27;100368.89;1775881;79;21022;-68
2022/05/25 07:05:53;;;;;;;4.58;1.92;;;;;;;17.92;72.88;100365.61;1782682;79;21465;-68
2022/05/25 07:08:19;;;;;;;2.12;1.92;;;;;;;18.09;72.47;100374.83;1804695;77;21665;-68
2022/05/25 07:10:46;;;;;;;2.83;1.80;;;;;;;18.27;72.12;100378.94;1779068;79;21092;-68
2022/05/25 07:13:13;;;;;;;1.30;1.20;;;;;;;18.38;71.69;100372.83;1788833;79;21082;-69
2022/05/25 07:15:39;;;;;;;1.42;1.32;;;;;;;18.52;71.37;100372.21;1782601;79;21079;-69
2022/05/25 07:18:06;;;;;;;2.33;1.77;;;;;;;18.61;70.89;100378.17;1810278;78;21051;-69
2022/05/25 07:20:32;;;;;;;1.70;1.60;;;;;;;18.66;70.32;100373.73;1781548;78;21052;-68
2022/05/25 07:22:58;;;;;;;2.30;1.40;;;;;;;18.80;69.93;100378.48;1812253;78;20963;-69
2022/05/25 07:25:24;;;;;;;2.47;1.75;;;;;;;18.78;69.52;100385.47;1785744;79;21489;-68
2022/05/25 07:27:51;;;;;;;2.22;1.62;;;;;;;18.79;69.09;100393.03;1779319;79;21045;-68
2022/05/25 07:30:17;;;;;;;3.98;1.80;;;;;;;18.81;68.67;100393.65;1779107;78;21529;-68
2022/05/25 07:32:43;;;;;;;2.58;1.52;;;;;;;18.85;68.18;100394.34;1782891;79;20967;-69
2022/05/25 07:35:10;;;;;;;4.62;1.87;;;;;;;18.90;67.77;100397.70;1803935;77;21029;-68
2022/05/25 07:37:38;;;;;;;3.50;1.22;;;;;;;18.87;67.34;100402.20;1782054;79;21521;-68
2022/05/25 07:40:12;;;;;;;2.95;1.95;;;;;;;18.68;66.94;100410.00;1784071;79;20987;-69
2022/05/25 07:42:40;;;;;;;1.85;1.70;;;;;;;18.51;66.53;100411.61;1752709;79;22024;-68
2022/05/25 07:45:08;;;;;;;2.25;1.90;;;;;;;18.48;66.22;100412.31;1778329;79;21005;-68
2022/05/25 07:47:34;;;;;;;9.30;1.87;;;;;;;18.55;65.95;100411.45;1776343;78;21000;-68
2022/05/25 07:50:00;;;;;;;3.40;1.95;;;;;;;18.66;65.75;100414.26;1778107;79;21052;-69
2022/05/25 07:52:29;;;;;;;4.03;2.10;;;;;;;18.79;65.46;100414.64;1782948;79;21021;-69
2022/05/25 07:54:55;;;;;;;3.00;1.90;;;;;;;18.90;65.29;100414.75;1782940;79;21053;-69
2022/05/25 07:57:21;;;;;;;3.47;1.87;;;;;;;18.95;65.05;100416.78;1782165;79;21583;-69
2022/05/25 07:59:47;;;;;;;3.35;2.00;;;;;;;18.88;64.81;100424.13;1785679;79;21539;-69
2022/05/25 08:07:55;;;;;;;2.02;1.85;;;;;;;18.87;64.16;100427.88;1761855;79;21756;-69
2022/05/25 08:10:23;;;;;;;2.65;2.20;;;;;;;18.79;63.88;100436.27;1785191;79;21630;-69
2022/05/25 08:12:49;;;;;;;3.22;2.10;;;;;;;18.66;63.67;100439.09;1780827;78;20989;-69
2022/05/25 08:15:15;;;;;;;3.52;1.98;;;;;;;18.56;63.55;100441.47;1813555;78;21016;-69
2022/05/25 08:17:43;;;;;;;4.35;2.47;;;;;;;18.53;63.51;100440.05;1782805;79;21062;-69
2022/05/25 08:20:10;;;;;;;2.98;2.67;;;;;;;18.47;63.40;100447.11;1780254;79;21150;-69
2022/05/25 08:22:37;;;;;;;4.28;2.75;;;;;;;18.42;63.29;100446.13;1776972;79;21759;-69
2022/05/25 08:25:05;;;;;;;3.77;3.20;;;;;;;18.38;63.18;100455.70;1775967;79;21025;-69
2022/05/25 08:27:32;;;;;;;3.35;2.87;;;;;;;18.34;63.17;100456.67;1776664;79;21019;-69
2022/05/25 08:29:58;;;;;;;3.95;3.10;;;;;;;18.31;63.17;100454.41;1807972;77;21014;-69
2022/05/25 08:32:24;;;;;;;4.35;3.95;;;;;;;18.23;63.11;100457.37;1801680;78;21194;-69
2022/05/25 08:34:50;;;;;;;4.15;2.92;;;;;;;18.16;63.17;100464.68;1810008;77;21449;-69
2022/05/25 08:37:16;;;;;;;4.40;2.98;;;;;;;18.13;63.22;100458.38;1780568;78;20895;-69
2022/05/25 08:39:42;;;;;;;4.10;3.10;;;;;;;18.12;63.27;100465.36;1811832;77;21038;-69
2022/05/25 08:42:16;;;;;;;3.42;3.10;;;;;;;18.04;63.29;100463.73;1780411;79;21057;-69
2022/05/25 08:44:42;;;;;;;3.92;2.92;;;;;;;17.96;63.33;100468.86;1754310;79;21133;-69
2022/05/25 08:47:10;;;;;;;3.47;2.70;;;;;;;17.91;63.36;100473.23;1779343;79;21012;-70
2022/05/25 08:49:36;;;;;;;4.50;3.15;;;;;;;17.88;63.42;100473.67;1750057;78;20995;-70
2022/05/25 08:52:04;;;;;;;3.00;2.50;;;;;;;17.82;63.50;100475.89;1772034;79;21441;-70
2022/05/25 08:54:31;;;;;;;2.62;2.42;;;;;;;17.80;63.58;100485.53;1778905;79;21102;-70
2022/05/25 08:57:05;;;;;;;4.47;3.22;;;;;;;17.74;63.67;100481.52;1780823;79;21027;-70
2022/05/25 08:59:36;;;;;;;3.02;2.67;;;;;;;17.67;63.72;100473.98;1786166;79;21023;-69
2022/05/25 09:02:32;;;;;;;3.45;2.58;;;;;;;17.57;63.80;100477.66;1780683;79;21020;-70
2022/05/25 09:05:04;;;;;;;2.50;2.30;;;;;;;17.52;63.91;100475.59;1779213;79;21386;-70
2022/05/25 09:07:56;;;;;;;3.45;2.42;;;;;;;17.49;64.02;100476.81;1777339;79;21074;-70
2022/05/25 09:10:22;;;;;;;2.55;2.35;;;;;;;17.48;64.03;100477.05;1777902;79;21025;-70
2022/05/25 09:12:57;;;;;;;2.27;2.08;;;;;;;17.48;64.14;100475.70;1782461;79;21043;-70
2022/05/25 09:15:27;;;;;;;3.42;2.55;;;;;;;17.47;64.23;100484.30;1782041;79;21503;-70
2022/05/25 09:18:09;;;;;;;3.98;2.40;;;;;;;17.48;64.32;100480.58;1807920;77;21014;-70
2022/05/25 09:20:40;;;;;;;2.83;2.55;;;;;;;17.60;64.44;100478.56;1784376;79;21040;-69
2022/05/25 09:23:06;;;;;;;4.45;2.30;;;;;;;17.70;64.53;100481.64;1791103;79;21080;-69
2022/05/25 09:25:34;;;;;;;5.15;2.75;;;;;;;17.78;64.61;100490.84;1808263;77;20881;-70
2022/05/25 09:28:12;;;;;;;4.15;2.27;;;;;;;17.87;64.69;100489.03;1811264;77;21002;-70
2022/05/25 09:30:41;;;;;;;3.77;2.80;;;;;;;17.95;64.78;100486.09;1782876;79;21035;-70
2022/05/25 09:33:24;;;;;;;3.50;2.80;;;;;;;18.06;64.75;100487.28;1793077;78;21058;-70
2022/05/25 09:35:55;;;;;;;6.97;4.47;;;;;;;18.04;64.64;100494.77;1796696;78;21050;-70
2022/05/25 09:38:45;;;;;;;3.80;3.12;;;;;;;18.03;64.62;100489.06;1790287;79;21521;-70
2022/05/25 09:41:14;;;;;;;3.45;2.90;;;;;;;18.07;64.60;100489.45;1788915;78;21554;-70
2022/05/25 09:43:41;;;;;;;3.45;2.98;;;;;;;18.23;64.48;100485.71;1790225;79;21018;-69
2022/05/25 09:46:15;;;;;;;4.08;2.67;;;;;;;18.42;64.34;100475.31;1784008;78;20984;-70
2022/05/25 09:48:51;;;;;;;4.92;2.72;;;;;;;18.53;64.16;100482.43;1782149;79;21143;-70
2022/05/25 09:51:27;;;;;;;4.78;2.58;;;;;;;18.50;63.97;100480.14;1768987;79;21469;-69
2022/05/25 09:53:58;;;;;;;8.73;7.45;;;;;;;18.54;63.88;100485.45;1742424;80;21495;-70
2022/05/25 09:56:41;;;;;;;9.28;3.33;;;;;;;18.67;63.83;100482.63;1742501;80;21501;-70
2022/05/25 09:59:16;;;;;;;3.10;2.52;;;;;;;18.77;63.68;100485.66;1780075;78;21078;-69
2022/05/25 10:01:46;;;;;;;4.15;2.50;;;;;;;18.77;63.56;100492.41;1780263;78;21206;-69
2022/05/25 10:04:14;;;;;;;;;;;;;;;18.74;63.38;100482.88;1749747;80;21042;-69
2022/05/25 10:06:51;;;;;;;2.22;2.00;;;;;;;18.61;63.29;100491.63;1752036;80;20146;-69
2022/05/25 10:09:24;;;;;;;4.62;2.17;;;;;;;18.46;63.26;100496.79;1746766;80;21495;-69
2022/05/25 10:11:57;;;;;;;2.87;1.95;;;;;;;18.25;63.17;100499.84;1744884;80;21019;-70
2022/05/25 10:14:37;;;;;;;3.83;2.62;;;;;;;18.19;63.11;100504.73;1745924;80;21573;-70
2022/05/25 10:17:14;;;;;;;4.25;2.15;;;;;;;18.17;63.08;100501.44;1751614;80;21105;-70
2022/05/25 10:19:49;;;;;;;4.50;2.27;;;;;;;18.13;63.06;100507.48;1750885;80;21622;-70
2022/05/25 10:22:41;;;;;;;7.80;2.50;;;;;;;18.08;63.02;100509.50;1750009;80;21071;-70
2022/05/25 10:25:45;;;;;;;4.20;2.40;;;;;;;17.93;62.93;100512.98;1738688;80;21076;-70
2022/05/25 10:28:33;;;;;;;5.10;2.08;;;;;;;17.73;62.95;100525.75;1745165;80;21473;-70
2022/05/25 10:37:08;;;;;;;5.00;2.20;;;;;;;17.56;63.25;100521.31;1743187;81;21457;-70
2022/05/25 10:39:59;;;;;;;2.30;2.10;;;;;;;17.58;63.36;100518.42;1742649;81;20975;-69
2022/05/25 10:42:31;;;;;;;4.40;2.77;;;;;;;17.53;63.44;100516.84;1749596;81;21137;-70
2022/05/25 10:45:14;;;;;;;5.25;2.42;;;;;;;17.47;63.62;100512.61;1782021;80;21021;-69
2022/05/25 10:48:07;;;;;;;3.08;1.95;;;;;;;17.47;63.71;100506.39;1740697;81;21445;-70
2022/05/25 10:50:39;;;;;;;4.60;2.30;;;;;;;17.48;63.84;100516.14;1761641;78;21034;-70
2022/05/25 10:53:37;;;;;;;6.60;2.22;;;;;;;17.45;63.99;100514.68;1802072;79;20974;-70
2022/05/25 10:56:24;;;;;;;2.98;2.10;;;;;;;17.45;64.05;100520.62;1788629;80;21226;-70
2022/05/25 10:59:29;;;;;;;4.33;1.85;;;;;;;17.51;64.17;100521.63;1765000;80;21009;-69
2022/05/25 11:02:09;;;;;;;6.92;2.10;;;;;;;17.54;64.19;100523.89;1790677;80;20955;-70
2022/05/25 11:04:59;;;;;;;3.98;2.00;;;;;;;17.60;64.22;100525.25;1764598;78;21524;-70
2022/05/25 11:07:41;;;;;;;3.10;2.05;;;;;;;17.61;64.19;100522.88;1790857;80;20967;-69
2022/05/25 11:10:33;;;;;;;6.30;2.42;;;;;;;17.50;64.09;100515.40;1790706;80;21428;-69
2022/05/25 11:13:14;;;;;;;4.45;2.22;;;;;;;17.43;64.07;100513.24;1715076;78;20975;-69
2022/05/25 11:16:01;;;;;;;2.92;2.35;;;;;;;17.36;64.08;100513.27;1792264;78;21022;-69
2022/05/25 11:18:46;;;;;;;6.70;2.60;;;;;;;17.36;64.09;100515.96;1777325;78;20995;-69
2022/05/25 11:21:17;;;;;;;8.10;2.27;;;;;;;17.37;64.14;100510.88;1808891;78;20928;-69
2022/05/25 11:24:10;;;;;;;2.60;2.25;;;;;;;17.43;64.14;100518.12;1790487;79;21807;-69
2022/05/25 11:26:48;;;;;;;5.60;2.17;;;;;;;17.49;64.24;100513.22;1790293;79;21040;-69
2022/05/25 11:29:36;;;;;;;5.35;2.80;;;;;;;17.53;64.30;100508.74;1738820;80;20971;-69
2022/05/25 11:32:23;;;;;;;6.12;2.50;;;;;;;17.48;64.32;100506.19;1792751;78;21049;-69
2022/05/25 11:37:47;;;;;;;5.10;2.30;;;;;;;17.13;64.38;100495.39;1835029;76;28294;-69
2022/05/25 11:40:46;;;;;;;1.90;1.40;;;;;;;16.94;64.43;100508.35;1822776;78;20999;-70
2022/05/25 11:43:35;;;;;;;3.62;1.95;;;;;;;16.85;64.45;100529.81;1825923;78;21456;-69
2022/05/25 11:46:13;;;;;;;4.75;1.32;;;;;;;16.40;64.20;100556.44;1827485;77;20961;-69
2022/05/25 11:48:56;;;;;;;2.55;0.95;;;;;;;15.91;64.01;100539.22;1824115;76;21373;-69
2022/05/25 11:51:31;;;;;;;1.72;0.95;;;;;;;15.63;63.98;100544.35;1796433;78;21656;-69
2022/05/25 11:54:12;;;;;;;4.22;0.70;;;;;;;15.42;63.90;100535.33;1797589;78;21217;-69
2022/05/25 11:56:55;;;;;;;2.17;0.95;;;;;;;15.35;63.85;100529.08;1753498;79;21829;-69
2022/05/25 11:59:49;;;;;;;8.63;1.55;;;;;;;15.22;63.77;100522.29;1791951;77;20975;-69
2022/05/25 12:02:52;;;;;;;1.82;0.88;;;;;;;14.94;63.79;100520.12;1803128;77;21100;-69
2022/05/25 12:05:29;;;;;;;3.62;0.95;;;;;;;14.83;63.88;100518.80;1817468;78;21025;-69
2022/05/25 12:08:22;;;;;;;3.37;0.80;;;;;;;14.89;63.99;100531.44;1805260;78;21466;-69
2022/05/25 12:11:28;;;;;;;7.00;2.98;;;;;;;14.96;64.03;100527.46;1734153;80;21795;-69
2022/05/25 12:14:15;;;;;;;2.30;1.32;;;;;;;15.09;64.12;100528.09;1791376;80;20986;-69